sensor_id;sensor_type;location;lat;lon;timestamp;P1;durP1;ratioP1;P2;durP2;ratioP2
35112;SDS011;21291;47.104;15.486;2022-08-19T00:01:10;31.52;;;29.48;;
35112;SDS011;21291;47.104;15.486;2022-08-19T00:03:36;30.27;;;28.52;;
35112;SDS011;21291;47.104;15.486;2022-08-19T00:06:03;34.67;;;32.53;;
35112;SDS011;21291;47.104;15.486;2022-08-19T00:08:29;30.10;;;28.15;;
35112;SDS011;21291;47.104;15.486;2022-08-19T00:10:56;31.23;;;29.35;;
35112;SDS011;21291;47.104;15.486;2022-08-19T00:13:22;33.63;;;31.58;;
35112;SDS011;21291;47.104;15.486;2022-08-19T00:15:48;31.35;;;29.55;;
35112;SDS011;21291;47.104;15.486;2022-08-19T00:18:14;34.78;;;32.63;;
35112;SDS011;21291;47.104;15.486;2022-08-19T00:20:40;35.00;;;32.95;;
35112;SDS011;21291;47.104;15.486;2022-08-19T00:23:06;35.03;;;33.08;;
35112;SDS011;21291;47.104;15.486;2022-08-19T00:25:32;25.40;;;23.45;;
35112;SDS011;21291;47.104;15.486;2022-08-19T00:27:59;31.33;;;29.48;;
35112;SDS011;21291;47.104;15.486;2022-08-19T00:30:25;30.58;;;28.77;;
35112;SDS011;21291;47.104;15.486;2022-08-19T00:32:52;30.42;;;28.58;;
35112;SDS011;21291;47.104;15.486;2022-08-19T00:35:20;38.15;;;35.97;;
35112;SDS011;21291;47.104;15.486;2022-08-19T00:37:47;28.90;;;26.85;;
35112;SDS011;21291;47.104;15.486;2022-08-19T00:40:13;33.60;;;31.65;;
35112;SDS011;21291;47.104;15.486;2022-08-19T00:42:40;27.15;;;25.63;;
35112;SDS011;21291;47.104;15.486;2022-08-19T00:45:16;35.78;;;33.55;;
35112;SDS011;21291;47.104;15.486;2022-08-19T00:47:46;34.30;;;32.22;;
35112;SDS011;21291;47.104;15.486;2022-08-19T00:50:13;38.67;;;36.40;;
35112;SDS011;21291;47.104;15.486;2022-08-19T00:52:44;42.20;;;39.63;;
35112;SDS011;21291;47.104;15.486;2022-08-19T00:55:17;33.22;;;31.17;;
35112;SDS011;21291;47.104;15.486;2022-08-19T00:57:46;37.67;;;35.42;;
35112;SDS011;21291;47.104;15.486;2022-08-19T01:00:16;44.35;;;41.78;;
35112;SDS011;21291;47.104;15.486;2022-08-19T01:02:43;38.78;;;36.53;;
35112;SDS011;21291;47.104;15.486;2022-08-19T01:05:11;36.72;;;34.53;;
35112;SDS011;21291;47.104;15.486;2022-08-19T01:07:40;38.90;;;36.55;;
35112;SDS011;21291;47.104;15.486;2022-08-19T01:10:07;40.45;;;37.88;;
35112;SDS011;21291;47.104;15.486;2022-08-19T01:12:34;90.20;;;85.00;;
35112;SDS011;21291;47.104;15.486;2022-08-19T01:15:01;81.90;;;77.28;;
35112;SDS011;21291;47.104;15.486;2022-08-19T01:17:27;80.05;;;75.38;;
35112;SDS011;21291;47.104;15.486;2022-08-19T01:19:53;68.15;;;64.38;;
35112;SDS011;21291;47.104;15.486;2022-08-19T01:24:49;83.50;;;78.85;;
35112;SDS011;21291;47.104;15.486;2022-08-19T01:27:16;81.05;;;76.40;;
35112;SDS011;21291;47.104;15.486;2022-08-19T01:29:42;85.50;;;80.57;;
35112;SDS011;21291;47.104;15.486;2022-08-19T01:32:11;82.55;;;77.90;;
35112;SDS011;21291;47.104;15.486;2022-08-19T01:34:37;80.85;;;76.25;;
35112;SDS011;21291;47.104;15.486;2022-08-19T01:37:07;77.78;;;73.40;;
35112;SDS011;21291;47.104;15.486;2022-08-19T01:39:36;80.68;;;76.13;;
35112;SDS011;21291;47.104;15.486;2022-08-19T01:42:02;76.93;;;72.00;;
35112;SDS011;21291;47.104;15.486;2022-08-19T01:44:29;82.57;;;77.80;;
35112;SDS011;21291;47.104;15.486;2022-08-19T01:46:55;78.55;;;73.97;;
35112;SDS011;21291;47.104;15.486;2022-08-19T01:49:23;76.13;;;71.63;;
35112;SDS011;21291;47.104;15.486;2022-08-19T01:51:53;91.70;;;86.57;;
35112;SDS011;21291;47.104;15.486;2022-08-19T01:54:20;72.28;;;68.13;;
35112;SDS011;21291;47.104;15.486;2022-08-19T01:56:46;82.90;;;78.15;;
35112;SDS011;21291;47.104;15.486;2022-08-19T01:59:16;81.60;;;76.93;;
35112;SDS011;21291;47.104;15.486;2022-08-19T02:01:43;89.00;;;84.03;;
35112;SDS011;21291;47.104;15.486;2022-08-19T02:04:09;89.85;;;84.75;;
35112;SDS011;21291;47.104;15.486;2022-08-19T02:06:35;91.50;;;86.25;;
35112;SDS011;21291;47.104;15.486;2022-08-19T02:09:02;86.03;;;81.10;;
35112;SDS011;21291;47.104;15.486;2022-08-19T02:11:30;81.63;;;77.05;;
35112;SDS011;21291;47.104;15.486;2022-08-19T02:16:24;102.60;;;96.57;;
35112;SDS011;21291;47.104;15.486;2022-08-19T02:18:50;88.70;;;83.82;;
35112;SDS011;21291;47.104;15.486;2022-08-19T02:21:17;81.00;;;76.40;;
35112;SDS011;21291;47.104;15.486;2022-08-19T02:23:44;80.00;;;75.40;;
35112;SDS011;21291;47.104;15.486;2022-08-19T02:26:10;71.35;;;67.32;;
35112;SDS011;21291;47.104;15.486;2022-08-19T02:28:37;82.65;;;77.45;;
35112;SDS011;21291;47.104;15.486;2022-08-19T02:31:08;85.97;;;80.82;;
35112;SDS011;21291;47.104;15.486;2022-08-19T02:33:34;79.15;;;74.65;;
35112;SDS011;21291;47.104;15.486;2022-08-19T02:36:03;82.95;;;78.13;;
35112;SDS011;21291;47.104;15.486;2022-08-19T02:40:57;108.03;;;101.90;;
35112;SDS011;21291;47.104;15.486;2022-08-19T02:43:24;98.30;;;92.60;;
35112;SDS011;21291;47.104;15.486;2022-08-19T02:45:51;87.25;;;82.22;;
35112;SDS011;21291;47.104;15.486;2022-08-19T02:48:17;87.53;;;82.22;;
35112;SDS011;21291;47.104;15.486;2022-08-19T02:50:44;82.50;;;77.75;;
35112;SDS011;21291;47.104;15.486;2022-08-19T02:53:10;75.25;;;71.05;;
35112;SDS011;21291;47.104;15.486;2022-08-19T02:55:42;84.18;;;79.38;;
35112;SDS011;21291;47.104;15.486;2022-08-19T02:58:08;83.20;;;78.40;;
35112;SDS011;21291;47.104;15.486;2022-08-19T03:00:34;72.55;;;68.45;;
35112;SDS011;21291;47.104;15.486;2022-08-19T03:03:00;79.15;;;74.72;;
35112;SDS011;21291;47.104;15.486;2022-08-19T03:05:27;82.20;;;77.30;;
35112;SDS011;21291;47.104;15.486;2022-08-19T03:07:53;72.90;;;68.70;;
35112;SDS011;21291;47.104;15.486;2022-08-19T03:10:19;86.30;;;81.13;;
35112;SDS011;21291;47.104;15.486;2022-08-19T03:12:45;76.18;;;71.80;;
35112;SDS011;21291;47.104;15.486;2022-08-19T03:15:11;61.42;;;57.78;;
35112;SDS011;21291;47.104;15.486;2022-08-19T03:17:37;70.50;;;66.40;;
35112;SDS011;21291;47.104;15.486;2022-08-19T03:20:04;68.88;;;64.90;;
35112;SDS011;21291;47.104;15.486;2022-08-19T03:22:30;67.35;;;63.53;;
35112;SDS011;21291;47.104;15.486;2022-08-19T03:24:56;63.80;;;60.15;;
35112;SDS011;21291;47.104;15.486;2022-08-19T03:27:24;84.20;;;79.45;;
35112;SDS011;21291;47.104;15.486;2022-08-19T03:29:50;67.68;;;63.90;;
35112;SDS011;21291;47.104;15.486;2022-08-19T03:32:16;74.63;;;70.35;;
35112;SDS011;21291;47.104;15.486;2022-08-19T03:34:42;87.85;;;82.82;;
35112;SDS011;21291;47.104;15.486;2022-08-19T03:37:10;77.60;;;73.10;;
35112;SDS011;21291;47.104;15.486;2022-08-19T03:39:39;81.30;;;76.75;;
35112;SDS011;21291;47.104;15.486;2022-08-19T03:42:05;94.22;;;88.75;;
35112;SDS011;21291;47.104;15.486;2022-08-19T03:44:32;72.22;;;68.03;;
35112;SDS011;21291;47.104;15.486;2022-08-19T03:46:58;74.93;;;70.70;;
35112;SDS011;21291;47.104;15.486;2022-08-19T03:49:26;80.15;;;75.55;;
35112;SDS011;21291;47.104;15.486;2022-08-19T03:51:52;80.15;;;75.63;;
35112;SDS011;21291;47.104;15.486;2022-08-19T03:54:20;76.05;;;71.60;;
35112;SDS011;21291;47.104;15.486;2022-08-19T03:56:51;78.85;;;74.40;;
35112;SDS011;21291;47.104;15.486;2022-08-19T03:59:20;79.60;;;75.13;;
35112;SDS011;21291;47.104;15.486;2022-08-19T04:01:47;80.93;;;76.15;;
35112;SDS011;21291;47.104;15.486;2022-08-19T04:04:13;79.47;;;74.93;;
35112;SDS011;21291;47.104;15.486;2022-08-19T04:06:39;71.45;;;67.35;;
35112;SDS011;21291;47.104;15.486;2022-08-19T04:09:09;71.60;;;67.43;;
35112;SDS011;21291;47.104;15.486;2022-08-19T04:11:38;70.93;;;66.78;;
35112;SDS011;21291;47.104;15.486;2022-08-19T04:14:07;77.78;;;73.45;;
35112;SDS011;21291;47.104;15.486;2022-08-19T04:16:33;68.35;;;64.43;;
35112;SDS011;21291;47.104;15.486;2022-08-19T04:19:00;81.50;;;76.80;;
35112;SDS011;21291;47.104;15.486;2022-08-19T04:21:26;78.65;;;74.03;;
35112;SDS011;21291;47.104;15.486;2022-08-19T04:23:53;66.82;;;63.08;;
35112;SDS011;21291;47.104;15.486;2022-08-19T04:26:23;61.35;;;57.83;;
35112;SDS011;21291;47.104;15.486;2022-08-19T04:28:50;65.60;;;61.95;;
35112;SDS011;21291;47.104;15.486;2022-08-19T04:31:27;59.35;;;55.90;;
35112;SDS011;21291;47.104;15.486;2022-08-19T04:33:54;70.88;;;66.72;;
35112;SDS011;21291;47.104;15.486;2022-08-19T04:36:22;77.13;;;72.70;;
35112;SDS011;21291;47.104;15.486;2022-08-19T04:38:50;73.65;;;69.45;;
35112;SDS011;21291;47.104;15.486;2022-08-19T04:41:18;64.20;;;60.60;;
35112;SDS011;21291;47.104;15.486;2022-08-19T04:44:03;77.70;;;73.28;;
35112;SDS011;21291;47.104;15.486;2022-08-19T04:46:29;77.95;;;73.50;;
35112;SDS011;21291;47.104;15.486;2022-08-19T04:48:56;69.93;;;65.88;;
35112;SDS011;21291;47.104;15.486;2022-08-19T04:51:23;71.53;;;67.43;;
35112;SDS011;21291;47.104;15.486;2022-08-19T04:53:49;63.20;;;59.65;;
35112;SDS011;21291;47.104;15.486;2022-08-19T04:56:17;65.07;;;61.40;;
35112;SDS011;21291;47.104;15.486;2022-08-19T04:58:44;74.88;;;70.50;;
35112;SDS011;21291;47.104;15.486;2022-08-19T05:01:14;69.82;;;65.95;;
35112;SDS011;21291;47.104;15.486;2022-08-19T05:03:42;72.50;;;68.25;;
35112;SDS011;21291;47.104;15.486;2022-08-19T05:06:09;75.75;;;71.43;;
35112;SDS011;21291;47.104;15.486;2022-08-19T05:08:37;72.82;;;68.47;;
35112;SDS011;21291;47.104;15.486;2022-08-19T05:11:09;78.80;;;74.37;;
35112;SDS011;21291;47.104;15.486;2022-08-19T05:13:36;70.53;;;66.57;;
35112;SDS011;21291;47.104;15.486;2022-08-19T05:16:02;69.32;;;65.47;;
35112;SDS011;21291;47.104;15.486;2022-08-19T05:18:28;65.03;;;61.38;;
35112;SDS011;21291;47.104;15.486;2022-08-19T05:21:14;72.00;;;67.90;;
35112;SDS011;21291;47.104;15.486;2022-08-19T05:23:59;77.60;;;73.20;;
35112;SDS011;21291;47.104;15.486;2022-08-19T05:26:27;68.78;;;64.93;;
35112;SDS011;21291;47.104;15.486;2022-08-19T05:28:53;64.60;;;60.58;;
35112;SDS011;21291;47.104;15.486;2022-08-19T05:31:20;60.83;;;57.38;;
35112;SDS011;21291;47.104;15.486;2022-08-19T05:33:46;63.20;;;59.63;;
35112;SDS011;21291;47.104;15.486;2022-08-19T05:36:12;54.47;;;51.38;;
35112;SDS011;21291;47.104;15.486;2022-08-19T05:38:39;50.78;;;47.75;;
35112;SDS011;21291;47.104;15.486;2022-08-19T05:41:08;54.20;;;51.13;;
35112;SDS011;21291;47.104;15.486;2022-08-19T05:43:34;46.00;;;43.42;;
35112;SDS011;21291;47.104;15.486;2022-08-19T05:46:01;52.05;;;48.80;;
35112;SDS011;21291;47.104;15.486;2022-08-19T05:48:27;48.50;;;45.55;;
35112;SDS011;21291;47.104;15.486;2022-08-19T05:50:53;40.20;;;37.95;;
35112;SDS011;21291;47.104;15.486;2022-08-19T05:53:19;44.42;;;41.50;;
35112;SDS011;21291;47.104;15.486;2022-08-19T05:55:45;44.63;;;42.05;;
35112;SDS011;21291;47.104;15.486;2022-08-19T05:58:11;39.50;;;37.22;;
35112;SDS011;21291;47.104;15.486;2022-08-19T06:00:38;50.15;;;47.30;;
35112;SDS011;21291;47.104;15.486;2022-08-19T06:03:05;44.47;;;41.63;;
35112;SDS011;21291;47.104;15.486;2022-08-19T06:05:31;48.90;;;46.05;;
35112;SDS011;21291;47.104;15.486;2022-08-19T06:07:57;61.10;;;57.28;;
35112;SDS011;21291;47.104;15.486;2022-08-19T06:10:24;65.40;;;61.38;;
35112;SDS011;21291;47.104;15.486;2022-08-19T06:12:51;68.57;;;64.72;;
35112;SDS011;21291;47.104;15.486;2022-08-19T06:15:17;72.97;;;68.57;;
35112;SDS011;21291;47.104;15.486;2022-08-19T06:17:43;60.97;;;57.40;;
35112;SDS011;21291;47.104;15.486;2022-08-19T06:20:10;70.85;;;66.70;;
35112;SDS011;21291;47.104;15.486;2022-08-19T06:22:42;62.50;;;58.90;;
35112;SDS011;21291;47.104;15.486;2022-08-19T06:25:09;19.27;;;17.83;;
35112;SDS011;21291;47.104;15.486;2022-08-19T06:27:35;14.70;;;13.95;;
35112;SDS011;21291;47.104;15.486;2022-08-19T06:30:02;13.40;;;12.75;;
35112;SDS011;21291;47.104;15.486;2022-08-19T06:32:28;14.35;;;13.45;;
35112;SDS011;21291;47.104;15.486;2022-08-19T06:34:55;15.15;;;14.35;;
35112;SDS011;21291;47.104;15.486;2022-08-19T06:37:21;12.82;;;12.13;;
35112;SDS011;21291;47.104;15.486;2022-08-19T06:39:48;14.27;;;13.52;;
35112;SDS011;21291;47.104;15.486;2022-08-19T06:42:14;14.73;;;14.02;;
35112;SDS011;21291;47.104;15.486;2022-08-19T06:44:44;15.30;;;14.55;;
35112;SDS011;21291;47.104;15.486;2022-08-19T06:47:13;16.38;;;15.48;;
35112;SDS011;21291;47.104;15.486;2022-08-19T06:49:40;18.45;;;17.40;;
35112;SDS011;21291;47.104;15.486;2022-08-19T06:52:12;17.70;;;16.70;;
35112;SDS011;21291;47.104;15.486;2022-08-19T06:54:40;20.25;;;19.25;;
35112;SDS011;21291;47.104;15.486;2022-08-19T06:57:09;23.10;;;21.90;;
35112;SDS011;21291;47.104;15.486;2022-08-19T06:59:39;23.35;;;22.13;;
35112;SDS011;21291;47.104;15.486;2022-08-19T07:02:06;26.63;;;25.17;;
35112;SDS011;21291;47.104;15.486;2022-08-19T07:04:32;27.67;;;25.88;;
35112;SDS011;21291;47.104;15.486;2022-08-19T07:07:03;30.55;;;28.98;;
35112;SDS011;21291;47.104;15.486;2022-08-19T07:09:32;30.23;;;28.67;;
35112;SDS011;21291;47.104;15.486;2022-08-19T07:12:02;32.97;;;31.17;;
35112;SDS011;21291;47.104;15.486;2022-08-19T07:14:29;31.67;;;30.05;;
35112;SDS011;21291;47.104;15.486;2022-08-19T07:16:56;31.23;;;29.63;;
35112;SDS011;21291;47.104;15.486;2022-08-19T07:19:23;27.15;;;24.95;;
35112;SDS011;21291;47.104;15.486;2022-08-19T07:21:51;27.60;;;26.17;;
35112;SDS011;21291;47.104;15.486;2022-08-19T07:24:22;26.67;;;25.27;;
35112;SDS011;21291;47.104;15.486;2022-08-19T07:26:49;23.30;;;22.10;;
35112;SDS011;21291;47.104;15.486;2022-08-19T07:29:15;28.40;;;26.83;;
35112;SDS011;21291;47.104;15.486;2022-08-19T07:31:42;28.27;;;25.63;;
35112;SDS011;21291;47.104;15.486;2022-08-19T07:34:09;32.33;;;30.63;;
35112;SDS011;21291;47.104;15.486;2022-08-19T07:36:37;27.25;;;25.63;;
35112;SDS011;21291;47.104;15.486;2022-08-19T07:39:06;27.40;;;25.90;;
35112;SDS011;21291;47.104;15.486;2022-08-19T07:41:34;26.58;;;25.17;;
35112;SDS011;21291;47.104;15.486;2022-08-19T07:44:01;20.92;;;19.83;;
35112;SDS011;21291;47.104;15.486;2022-08-19T07:46:29;20.13;;;19.08;;
35112;SDS011;21291;47.104;15.486;2022-08-19T07:48:56;17.75;;;16.85;;
35112;SDS011;21291;47.104;15.486;2022-08-19T07:51:22;16.00;;;15.20;;
35112;SDS011;21291;47.104;15.486;2022-08-19T07:53:48;14.40;;;13.70;;
35112;SDS011;21291;47.104;15.486;2022-08-19T07:56:16;14.63;;;13.80;;
35112;SDS011;21291;47.104;15.486;2022-08-19T07:58:43;13.43;;;12.63;;
35112;SDS011;21291;47.104;15.486;2022-08-19T08:01:14;14.98;;;14.13;;
35112;SDS011;21291;47.104;15.486;2022-08-19T08:03:41;13.43;;;12.73;;
35112;SDS011;21291;47.104;15.486;2022-08-19T08:06:26;14.20;;;13.50;;
35112;SDS011;21291;47.104;15.486;2022-08-19T08:09:11;15.70;;;14.90;;
35112;SDS011;21291;47.104;15.486;2022-08-19T08:11:42;17.60;;;16.45;;
35112;SDS011;21291;47.104;15.486;2022-08-19T08:14:13;16.38;;;15.55;;
35112;SDS011;21291;47.104;15.486;2022-08-19T08:16:39;15.73;;;14.82;;
35112;SDS011;21291;47.104;15.486;2022-08-19T08:19:06;17.25;;;16.00;;
35112;SDS011;21291;47.104;15.486;2022-08-19T08:21:33;15.23;;;14.38;;
35112;SDS011;21291;47.104;15.486;2022-08-19T08:23:59;14.68;;;13.90;;
35112;SDS011;21291;47.104;15.486;2022-08-19T08:26:25;14.77;;;13.98;;
35112;SDS011;21291;47.104;15.486;2022-08-19T08:28:52;19.27;;;18.30;;
35112;SDS011;21291;47.104;15.486;2022-08-19T08:31:19;21.88;;;20.75;;
35112;SDS011;21291;47.104;15.486;2022-08-19T08:33:45;43.80;;;41.42;;
35112;SDS011;21291;47.104;15.486;2022-08-19T08:36:12;51.17;;;48.20;;
35112;SDS011;21291;47.104;15.486;2022-08-19T08:38:39;43.47;;;40.85;;
35112;SDS011;21291;47.104;15.486;2022-08-19T08:43:53;27.67;;;26.13;;
35112;SDS011;21291;47.104;15.486;2022-08-19T08:49:01;21.58;;;20.48;;
35112;SDS011;21291;47.104;15.486;2022-08-19T08:51:34;31.33;;;28.55;;
35112;SDS011;21291;47.104;15.486;2022-08-19T08:54:01;27.33;;;25.70;;
35112;SDS011;21291;47.104;15.486;2022-08-19T08:56:28;32.38;;;30.70;;
35112;SDS011;21291;47.104;15.486;2022-08-19T08:59:02;28.73;;;26.85;;
35112;SDS011;21291;47.104;15.486;2022-08-19T09:01:31;23.92;;;22.65;;
35112;SDS011;21291;47.104;15.486;2022-08-19T09:03:57;25.08;;;23.73;;
35112;SDS011;21291;47.104;15.486;2022-08-19T09:16:33;22.50;;;20.27;;
35112;SDS011;21291;47.104;15.486;2022-08-19T09:19:03;16.80;;;15.80;;
35112;SDS011;21291;47.104;15.486;2022-08-19T09:21:30;15.23;;;14.43;;
35112;SDS011;21291;47.104;15.486;2022-08-19T09:23:57;13.27;;;12.57;;
35112;SDS011;21291;47.104;15.486;2022-08-19T09:26:23;15.93;;;15.02;;
35112;SDS011;21291;47.104;15.486;2022-08-19T09:37:35;16.98;;;15.98;;
35112;SDS011;21291;47.104;15.486;2022-08-19T09:40:02;18.75;;;17.65;;
35112;SDS011;21291;47.104;15.486;2022-08-19T09:42:28;21.63;;;20.40;;
35112;SDS011;21291;47.104;15.486;2022-08-19T09:44:54;23.23;;;21.92;;
35112;SDS011;21291;47.104;15.486;2022-08-19T09:47:20;24.25;;;22.92;;
35112;SDS011;21291;47.104;15.486;2022-08-19T09:49:46;25.38;;;23.85;;
35112;SDS011;21291;47.104;15.486;2022-08-19T09:52:21;29.55;;;27.90;;
35112;SDS011;21291;47.104;15.486;2022-08-19T09:54:47;27.83;;;26.33;;
35112;SDS011;21291;47.104;15.486;2022-08-19T09:57:17;25.00;;;23.60;;
35112;SDS011;21291;47.104;15.486;2022-08-19T09:59:43;24.98;;;23.60;;
35112;SDS011;21291;47.104;15.486;2022-08-19T10:02:10;28.08;;;26.00;;
35112;SDS011;21291;47.104;15.486;2022-08-19T10:04:36;26.90;;;25.23;;
35112;SDS011;21291;47.104;15.486;2022-08-19T10:07:21;26.55;;;25.10;;
35112;SDS011;21291;47.104;15.486;2022-08-19T10:09:47;27.98;;;26.42;;
35112;SDS011;21291;47.104;15.486;2022-08-19T10:12:13;28.17;;;26.58;;
35112;SDS011;21291;47.104;15.486;2022-08-19T10:14:40;26.80;;;25.33;;
35112;SDS011;21291;47.104;15.486;2022-08-19T10:17:07;25.80;;;24.42;;
35112;SDS011;21291;47.104;15.486;2022-08-19T10:19:46;27.75;;;26.08;;
35112;SDS011;21291;47.104;15.486;2022-08-19T10:25:16;26.98;;;25.50;;
35112;SDS011;21291;47.104;15.486;2022-08-19T10:27:42;29.25;;;27.60;;
35112;SDS011;21291;47.104;15.486;2022-08-19T10:30:09;30.50;;;28.67;;
35112;SDS011;21291;47.104;15.486;2022-08-19T10:32:35;29.67;;;27.65;;
35112;SDS011;21291;47.104;15.486;2022-08-19T10:35:03;27.30;;;25.75;;
35112;SDS011;21291;47.104;15.486;2022-08-19T10:37:33;27.23;;;25.52;;
35112;SDS011;21291;47.104;15.486;2022-08-19T10:39:59;29.25;;;27.35;;
35112;SDS011;21291;47.104;15.486;2022-08-19T10:42:26;27.73;;;25.85;;
35112;SDS011;21291;47.104;15.486;2022-08-19T10:44:53;25.98;;;24.52;;
35112;SDS011;21291;47.104;15.486;2022-08-19T10:47:19;27.90;;;26.27;;
35112;SDS011;21291;47.104;15.486;2022-08-19T10:49:48;28.00;;;26.20;;
35112;SDS011;21291;47.104;15.486;2022-08-19T10:52:32;28.00;;;26.40;;
35112;SDS011;21291;47.104;15.486;2022-08-19T10:55:02;29.83;;;28.08;;
35112;SDS011;21291;47.104;15.486;2022-08-19T10:57:48;26.33;;;24.85;;
35112;SDS011;21291;47.104;15.486;2022-08-19T11:00:14;30.70;;;28.88;;
35112;SDS011;21291;47.104;15.486;2022-08-19T11:02:40;27.17;;;25.63;;
35112;SDS011;21291;47.104;15.486;2022-08-19T11:05:07;30.23;;;28.48;;
35112;SDS011;21291;47.104;15.486;2022-08-19T11:07:36;28.10;;;26.23;;
35112;SDS011;21291;47.104;15.486;2022-08-19T11:10:03;26.80;;;25.08;;
35112;SDS011;21291;47.104;15.486;2022-08-19T11:12:29;27.42;;;25.63;;
35112;SDS011;21291;47.104;15.486;2022-08-19T11:14:55;26.83;;;25.25;;
35112;SDS011;21291;47.104;15.486;2022-08-19T11:17:21;28.35;;;26.73;;
35112;SDS011;21291;47.104;15.486;2022-08-19T11:19:48;31.55;;;29.65;;
35112;SDS011;21291;47.104;15.486;2022-08-19T11:22:15;31.33;;;29.42;;
35112;SDS011;21291;47.104;15.486;2022-08-19T11:24:42;38.83;;;36.58;;
35112;SDS011;21291;47.104;15.486;2022-08-19T11:27:11;35.15;;;33.17;;
35112;SDS011;21291;47.104;15.486;2022-08-19T11:29:39;34.25;;;32.20;;
35112;SDS011;21291;47.104;15.486;2022-08-19T11:32:06;28.27;;;26.73;;
35112;SDS011;21291;47.104;15.486;2022-08-19T11:34:34;35.63;;;33.28;;
35112;SDS011;21291;47.104;15.486;2022-08-19T11:37:00;38.10;;;35.95;;
35112;SDS011;21291;47.104;15.486;2022-08-19T11:39:27;33.35;;;31.27;;
35112;SDS011;21291;47.104;15.486;2022-08-19T11:41:57;36.17;;;34.15;;
35112;SDS011;21291;47.104;15.486;2022-08-19T11:47:26;40.88;;;38.50;;
35112;SDS011;21291;47.104;15.486;2022-08-19T11:49:53;37.15;;;35.08;;
35112;SDS011;21291;47.104;15.486;2022-08-19T11:52:19;37.10;;;35.00;;
35112;SDS011;21291;47.104;15.486;2022-08-19T11:54:45;39.90;;;37.63;;
35112;SDS011;21291;47.104;15.486;2022-08-19T11:57:11;33.72;;;31.63;;
35112;SDS011;21291;47.104;15.486;2022-08-19T11:59:39;33.87;;;31.97;;
35112;SDS011;21291;47.104;15.486;2022-08-19T12:02:06;37.67;;;35.47;;
35112;SDS011;21291;47.104;15.486;2022-08-19T12:04:32;33.75;;;31.88;;
35112;SDS011;21291;47.104;15.486;2022-08-19T12:06:58;33.58;;;31.65;;
35112;SDS011;21291;47.104;15.486;2022-08-19T12:09:24;38.17;;;35.83;;
35112;SDS011;21291;47.104;15.486;2022-08-19T12:11:50;37.03;;;34.88;;
35112;SDS011;21291;47.104;15.486;2022-08-19T12:14:16;38.78;;;36.55;;
35112;SDS011;21291;47.104;15.486;2022-08-19T12:16:43;39.22;;;37.05;;
35112;SDS011;21291;47.104;15.486;2022-08-19T12:19:11;40.13;;;37.33;;
35112;SDS011;21291;47.104;15.486;2022-08-19T12:21:37;42.67;;;40.28;;
35112;SDS011;21291;47.104;15.486;2022-08-19T12:24:04;40.90;;;38.22;;
35112;SDS011;21291;47.104;15.486;2022-08-19T12:26:31;40.10;;;37.83;;
35112;SDS011;21291;47.104;15.486;2022-08-19T12:28:57;38.17;;;35.88;;
35112;SDS011;21291;47.104;15.486;2022-08-19T12:31:24;39.92;;;37.65;;
35112;SDS011;21291;47.104;15.486;2022-08-19T12:33:50;41.47;;;39.17;;
35112;SDS011;21291;47.104;15.486;2022-08-19T12:36:17;43.20;;;40.58;;
35112;SDS011;21291;47.104;15.486;2022-08-19T12:38:43;46.50;;;43.55;;
35112;SDS011;21291;47.104;15.486;2022-08-19T12:41:11;42.00;;;39.53;;
35112;SDS011;21291;47.104;15.486;2022-08-19T12:43:38;44.85;;;42.22;;
35112;SDS011;21291;47.104;15.486;2022-08-19T12:46:04;45.38;;;42.75;;
35112;SDS011;21291;47.104;15.486;2022-08-19T12:48:31;43.58;;;41.05;;
35112;SDS011;21291;47.104;15.486;2022-08-19T12:50:57;41.53;;;39.17;;
35112;SDS011;21291;47.104;15.486;2022-08-19T12:53:23;50.72;;;46.28;;
35112;SDS011;21291;47.104;15.486;2022-08-19T12:55:56;46.22;;;43.65;;
35112;SDS011;21291;47.104;15.486;2022-08-19T12:58:23;49.53;;;46.60;;
35112;SDS011;21291;47.104;15.486;2022-08-19T13:00:49;49.58;;;46.42;;
35112;SDS011;21291;47.104;15.486;2022-08-19T13:03:15;49.08;;;46.30;;
35112;SDS011;21291;47.104;15.486;2022-08-19T13:05:41;50.60;;;47.60;;
35112;SDS011;21291;47.104;15.486;2022-08-19T13:08:07;50.67;;;47.70;;
35112;SDS011;21291;47.104;15.486;2022-08-19T13:10:34;48.08;;;45.28;;
35112;SDS011;21291;47.104;15.486;2022-08-19T13:13:05;49.22;;;46.35;;
35112;SDS011;21291;47.104;15.486;2022-08-19T13:15:35;53.08;;;50.00;;
35112;SDS011;21291;47.104;15.486;2022-08-19T13:18:05;52.60;;;49.35;;
35112;SDS011;21291;47.104;15.486;2022-08-19T13:20:32;50.33;;;47.35;;
35112;SDS011;21291;47.104;15.486;2022-08-19T13:22:58;50.88;;;47.90;;
35112;SDS011;21291;47.104;15.486;2022-08-19T13:25:24;51.28;;;48.25;;
35112;SDS011;21291;47.104;15.486;2022-08-19T13:27:51;47.45;;;44.75;;
35112;SDS011;21291;47.104;15.486;2022-08-19T13:30:19;48.83;;;46.00;;
35112;SDS011;21291;47.104;15.486;2022-08-19T13:33:04;49.78;;;46.90;;
35112;SDS011;21291;47.104;15.486;2022-08-19T13:35:47;48.00;;;45.17;;
35112;SDS011;21291;47.104;15.486;2022-08-19T13:38:15;49.60;;;46.55;;
35112;SDS011;21291;47.104;15.486;2022-08-19T13:40:41;51.28;;;48.28;;
35112;SDS011;21291;47.104;15.486;2022-08-19T13:43:08;49.55;;;46.60;;
35112;SDS011;21291;47.104;15.486;2022-08-19T13:45:34;50.50;;;47.40;;
35112;SDS011;21291;47.104;15.486;2022-08-19T13:48:02;48.53;;;45.70;;
35112;SDS011;21291;47.104;15.486;2022-08-19T13:50:31;50.97;;;47.95;;
35112;SDS011;21291;47.104;15.486;2022-08-19T13:52:58;49.60;;;46.60;;
35112;SDS011;21291;47.104;15.486;2022-08-19T13:55:24;48.35;;;45.55;;
35112;SDS011;21291;47.104;15.486;2022-08-19T13:57:55;45.40;;;42.80;;
35112;SDS011;21291;47.104;15.486;2022-08-19T14:00:22;50.60;;;47.55;;
35112;SDS011;21291;47.104;15.486;2022-08-19T14:02:50;48.58;;;45.63;;
35112;SDS011;21291;47.104;15.486;2022-08-19T14:05:17;49.90;;;46.90;;
35112;SDS011;21291;47.104;15.486;2022-08-19T14:07:43;48.72;;;45.90;;
35112;SDS011;21291;47.104;15.486;2022-08-19T14:10:10;49.67;;;46.78;;
35112;SDS011;21291;47.104;15.486;2022-08-19T14:12:37;51.42;;;48.42;;
35112;SDS011;21291;47.104;15.486;2022-08-19T14:15:04;52.80;;;49.63;;
35112;SDS011;21291;47.104;15.486;2022-08-19T14:17:31;51.60;;;48.63;;
35112;SDS011;21291;47.104;15.486;2022-08-19T14:20:00;57.67;;;54.42;;
35112;SDS011;21291;47.104;15.486;2022-08-19T14:22:28;58.97;;;55.40;;
35112;SDS011;21291;47.104;15.486;2022-08-19T14:24:56;55.92;;;52.67;;
35112;SDS011;21291;47.104;15.486;2022-08-19T14:27:22;50.60;;;47.60;;
35112;SDS011;21291;47.104;15.486;2022-08-19T14:29:50;55.65;;;52.47;;
35112;SDS011;21291;47.104;15.486;2022-08-19T14:32:16;54.13;;;51.03;;
35112;SDS011;21291;47.104;15.486;2022-08-19T14:34:42;55.80;;;52.53;;
35112;SDS011;21291;47.104;15.486;2022-08-19T14:37:11;55.00;;;51.75;;
35112;SDS011;21291;47.104;15.486;2022-08-19T14:39:39;57.05;;;53.65;;
35112;SDS011;21291;47.104;15.486;2022-08-19T14:42:09;57.97;;;54.47;;
35112;SDS011;21291;47.104;15.486;2022-08-19T14:44:35;54.58;;;51.10;;
35112;SDS011;21291;47.104;15.486;2022-08-19T14:47:02;54.25;;;51.10;;
35112;SDS011;21291;47.104;15.486;2022-08-19T14:49:28;50.40;;;47.45;;